Time;durP1;ratioP1;P1;durP2;ratioP2;P2;SDS_P1;SDS_P2;PMS_P1;PMS_P2;Temp;Humidity;BMP_temperature;BMP_pressure;BME280_temperature;BME280_humidity;BME280_pressure;Samples;Min_cycle;Max_cycle;Signal;HPM_P1;HPM_P2
2023/08/28 00:01:49;;;;;;;8.88;5.03;;;12.90;99.90;;;;;;5068998;28;20040;-82
2023/08/28 00:04:14;;;;;;;5.43;4.90;;;12.90;99.90;;;;;;5080913;28;20052;-82
2023/08/28 00:06:40;;;;;;;7.50;4.57;;;12.90;99.90;;;;;;5085242;28;20098;-82
2023/08/28 00:09:06;;;;;;;5.38;4.72;;;13.00;99.90;;;;;;5081723;28;20044;-82
2023/08/28 00:11:31;;;;;;;5.50;4.57;;;12.90;99.90;;;;;;5085553;28;20044;-82
2023/08/28 00:13:57;;;;;;;5.90;4.80;;;13.00;99.90;;;;;;5070000;28;20037;-82
2023/08/28 00:16:22;;;;;;;6.50;5.00;;;13.00;99.90;;;;;;5068225;28;20079;-82
2023/08/28 00:18:48;;;;;;;8.13;5.43;;;12.90;99.90;;;;;;5066151;28;20479;-82
2023/08/28 00:21:14;;;;;;;5.30;4.80;;;12.90;99.90;;;;;;5067158;28;20040;-82
2023/08/28 00:23:39;;;;;;;6.28;5.10;;;12.90;99.90;;;;;;5067558;28;20040;-82
2023/08/28 00:26:05;;;;;;;5.43;4.88;;;12.80;99.90;;;;;;5067369;28;20095;-82
2023/08/28 00:28:30;;;;;;;5.40;4.88;;;12.80;99.90;;;;;;5067282;28;20040;-82
2023/08/28 00:30:56;;;;;;;8.20;5.60;;;12.80;99.90;;;;;;5083419;28;20082;-82
2023/08/28 00:33:21;;;;;;;8.18;6.15;;;12.70;99.90;;;;;;5074415;28;20040;-82
2023/08/28 00:35:47;;;;;;;7.07;5.93;;;12.70;99.90;;;;;;5074150;28;20036;-82
2023/08/28 00:38:12;;;;;;;6.95;5.80;;;12.70;99.90;;;;;;5080268;28;20040;-82
2023/08/28 00:40:40;;;;;;;8.20;6.20;;;12.60;99.90;;;;;;5084617;28;20097;-82
2023/08/28 00:43:06;;;;;;;7.53;5.72;;;12.60;99.90;;;;;;5071778;28;20060;-82
2023/08/28 00:45:33;;;;;;;6.32;5.28;;;12.60;99.90;;;;;;5081922;28;20052;-82
2023/08/28 00:47:58;;;;;;;6.40;5.80;;;12.60;99.90;;;;;;5068130;28;20057;-82
2023/08/28 00:50:25;;;;;;;6.13;5.50;;;12.40;99.90;;;;;;5067026;28;20364;-82
2023/08/28 00:52:50;;;;;;;8.20;5.57;;;12.40;99.90;;;;;;5067307;28;20059;-82
2023/08/28 00:55:16;;;;;;;8.18;6.10;;;12.40;99.90;;;;;;5080883;28;20040;-82
2023/08/28 00:57:42;;;;;;;6.75;5.93;;;12.70;99.90;;;;;;5068715;28;20040;-82
2023/08/28 01:00:10;;;;;;;8.60;6.07;;;12.30;99.90;;;;;;5071827;28;20198;-82
2023/08/28 01:02:38;;;;;;;8.40;6.03;;;12.30;99.90;;;;;;5068879;28;20083;-82
2023/08/28 01:05:05;;;;;;;8.13;6.70;;;12.30;99.90;;;;;;5085993;28;20072;-82
2023/08/28 01:07:37;;;;;;;8.27;6.10;;;12.30;99.90;;;;;;5084835;28;20102;-82
2023/08/28 01:10:15;;;;;;;6.93;6.15;;;12.30;99.90;;;;;;5070828;28;20044;-82
2023/08/28 01:12:52;;;;;;;7.20;6.50;;;12.20;99.90;;;;;;5067066;28;20040;-82
2023/08/28 01:15:20;;;;;;;7.40;6.53;;;12.20;99.90;;;;;;5076681;28;20358;-82
2023/08/28 01:17:49;;;;;;;8.07;5.63;;;12.20;99.90;;;;;;5079962;28;20109;-82
2023/08/28 01:20:15;;;;;;;6.72;6.05;;;12.20;99.90;;;;;;5067066;28;20123;-82
2023/08/28 01:22:59;;;;;;;7.88;6.10;;;12.20;99.90;;;;;;5065558;28;20052;-82
2023/08/28 01:25:25;;;;;;;7.38;5.93;;;12.20;99.90;;;;;;5076549;28;20067;-81
2023/08/28 01:27:52;;;;;;;6.20;5.63;;;12.10;99.90;;;;;;5074812;28;20047;-82
2023/08/28 01:30:18;;;;;;;8.48;5.57;;;12.10;99.90;;;;;;5082888;28;20115;-82
2023/08/28 01:32:45;;;;;;;5.63;5.13;;;12.10;99.90;;;;;;5072575;28;20156;-82
2023/08/28 01:35:14;;;;;;;7.40;5.50;;;12.00;99.90;;;;;;5070191;28;20036;-82
2023/08/28 01:37:58;;;;;;;7.97;5.88;;;12.00;99.90;;;;;;5075502;28;20039;-82
2023/08/28 01:40:29;;;;;;;6.47;5.68;;;12.10;99.90;;;;;;5070875;28;20051;-82
2023/08/28 01:42:56;;;;;;;6.32;5.65;;;11.90;99.90;;;;;;5079210;28;20086;-82
2023/08/28 01:45:22;;;;;;;6.60;5.90;;;11.90;99.90;;;;;;5082991;28;20048;-82
2023/08/28 01:47:49;;;;;;;7.85;7.10;;;11.80;99.90;;;;;;5070871;28;20799;-82
2023/08/28 01:50:14;;;;;;;7.60;6.90;;;11.80;99.90;;;;;;5076855;28;20112;-82
2023/08/28 01:52:40;;;;;;;9.88;7.18;;;11.80;99.90;;;;;;5091282;28;20168;-82
2023/08/28 01:55:06;;;;;;;8.18;7.35;;;11.80;99.90;;;;;;5085154;28;20101;-82
2023/08/28 01:57:32;;;;;;;7.95;6.93;;;11.80;99.90;;;;;;5072329;28;20051;-83
2023/08/28 01:59:57;;;;;;;8.90;7.80;;;11.70;99.90;;;;;;5087677;28;20048;-82
2023/08/28 02:02:23;;;;;;;8.75;7.65;;;11.70;99.90;;;;;;5079706;28;20098;-82
2023/08/28 02:04:48;;;;;;;10.23;7.88;;;11.70;99.90;;;;;;5070145;28;20121;-82
2023/08/28 02:07:14;;;;;;;10.80;7.65;;;11.70;99.90;;;;;;5084776;28;20040;-82
2023/08/28 02:09:40;;;;;;;9.90;8.40;;;11.70;99.90;;;;;;5070256;28;20051;-82
2023/08/28 02:12:06;;;;;;;9.07;8.27;;;11.70;99.90;;;;;;5072248;28;20040;-82
2023/08/28 02:14:32;;;;;;;9.70;8.80;;;11.70;99.90;;;;;;5067998;28;20188;-82
2023/08/28 02:16:57;;;;;;;11.02;8.77;;;11.70;99.90;;;;;;5084440;28;20134;-82
2023/08/28 02:19:23;;;;;;;13.15;8.60;;;11.70;99.90;;;;;;5081174;28;20075;-81
2023/08/28 02:21:49;;;;;;;11.65;8.55;;;11.60;99.90;;;;;;5070355;28;20055;-81
2023/08/28 02:24:14;;;;;;;9.77;8.10;;;11.60;99.90;;;;;;5085801;28;20056;-82
2023/08/28 02:26:40;;;;;;;9.90;7.95;;;11.60;99.90;;;;;;5073574;28;20086;-82
2023/08/28 02:29:05;;;;;;;11.73;8.55;;;11.60;99.90;;;;;;5087941;28;20040;-82
2023/08/28 02:31:31;;;;;;;10.00;9.00;;;11.60;99.90;;;;;;5071392;28;20050;-82
2023/08/28 02:33:56;;;;;;;10.93;9.18;;;11.60;99.90;;;;;;5069720;28;20799;-82
2023/08/28 02:36:22;;;;;;;11.07;9.00;;;11.60;99.90;;;;;;5085571;28;20036;-82
2023/08/28 02:38:48;;;;;;;10.25;9.20;;;11.60;99.90;;;;;;5066808;28;20045;-82
2023/08/28 02:41:13;;;;;;;13.00;9.32;;;11.60;99.90;;;;;;5067827;28;20040;-82
2023/08/28 02:43:39;;;;;;;11.35;9.85;;;11.60;99.90;;;;;;5068423;28;20061;-81
2023/08/28 02:46:04;;;;;;;9.70;8.73;;;11.60;99.90;;;;;;5079942;28;20144;-82
2023/08/28 02:48:30;;;;;;;14.73;9.48;;;11.60;99.90;;;;;;5085394;28;20047;-82
2023/08/28 02:50:55;;;;;;;12.82;10.02;;;11.60;99.90;;;;;;5069386;28;20691;-82
2023/08/28 02:53:21;;;;;;;11.73;9.82;;;11.60;99.90;;;;;;5085065;28;20048;-82
2023/08/28 02:56:25;;;;;;;12.88;10.02;;;11.60;99.90;;;;;;5068981;28;20182;-82
2023/08/28 02:58:51;;;;;;;11.98;9.90;;;11.60;99.90;;;;;;5071992;28;20040;-81
2023/08/28 03:01:18;;;;;;;12.18;9.80;;;11.60;99.90;;;;;;5080037;28;20509;-82
2023/08/28 03:03:44;;;;;;;10.68;9.50;;;11.60;99.90;;;;;;5078801;28;20049;-82
2023/08/28 03:06:10;;;;;;;11.07;9.95;;;11.70;99.90;;;;;;5070697;28;20044;-82
2023/08/28 03:08:36;;;;;;;13.95;11.05;;;11.70;99.90;;;;;;5080246;28;20086;-82
2023/08/28 03:11:01;;;;;;;12.35;10.55;;;11.70;99.90;;;;;;5068805;28;20041;-82
2023/08/28 03:13:27;;;;;;;12.40;11.20;;;11.80;99.90;;;;;;5069419;28;20040;-82
2023/08/28 03:15:52;;;;;;;13.63;10.65;;;11.80;99.90;;;;;;5067443;28;20564;-82
2023/08/28 03:18:18;;;;;;;14.38;11.10;;;11.90;99.90;;;;;;5069013;28;20056;-82
2023/08/28 03:20:44;;;;;;;14.18;11.10;;;11.90;99.90;;;;;;5072113;28;20063;-81
2023/08/28 03:23:09;;;;;;;14.57;11.57;;;11.90;99.90;;;;;;5094310;28;20466;-82
2023/08/28 03:25:36;;;;;;;17.42;10.93;;;11.90;99.90;;;;;;5074625;28;20604;-82
2023/08/28 03:28:02;;;;;;;10.90;9.80;;;11.80;99.90;;;;;;5069041;28;20143;-82
2023/08/28 03:30:28;;;;;;;11.95;10.60;;;11.90;99.90;;;;;;5075002;28;20124;-82
2023/08/28 03:32:53;;;;;;;11.23;9.77;;;11.80;99.90;;;;;;5068352;28;20113;-82
2023/08/28 03:35:19;;;;;;;11.65;10.15;;;11.70;99.90;;;;;;5070840;28;20122;-82
2023/08/28 03:37:45;;;;;;;11.68;10.40;;;11.60;99.90;;;;;;5073433;28;20094;-81
2023/08/28 03:40:11;;;;;;;11.80;10.25;;;11.60;99.90;;;;;;5050442;28;20542;-82
2023/08/28 03:42:36;;;;;;;11.52;9.90;;;11.60;99.90;;;;;;5086494;28;20702;-82
2023/08/28 03:45:02;;;;;;;11.43;9.90;;;11.60;99.90;;;;;;5087846;28;20048;-82
2023/08/28 03:47:28;;;;;;;13.18;10.05;;;11.60;99.90;;;;;;5070659;28;20044;-82
2023/08/28 03:49:53;;;;;;;12.95;10.93;;;11.60;99.90;;;;;;5068260;28;20048;-82
2023/08/28 03:52:19;;;;;;;11.60;10.35;;;11.60;99.90;;;;;;5068181;28;20082;-81
2023/08/28 03:54:44;;;;;;;14.07;10.85;;;11.50;99.90;;;;;;5069524;28;20036;-82
2023/08/28 03:57:10;;;;;;;13.15;11.57;;;11.60;99.90;;;;;;5080102;28;20036;-82
2023/08/28 03:59:36;;;;;;;13.63;11.15;;;11.50;99.90;;;;;;5088439;28;20562;-82
2023/08/28 04:02:03;;;;;;;11.80;10.65;;;11.50;99.90;;;;;;5073698;28;20072;-82
2023/08/28 04:04:28;;;;;;;14.85;10.82;;;11.60;99.90;;;;;;5084154;28;20132;-82
2023/08/28 04:06:57;;;;;;;12.35;10.68;;;11.50;99.90;;;;;;5079548;28;20355;-82
2023/08/28 04:09:24;;;;;;;11.88;10.05;;;11.50;99.90;;;;;;5070686;28;20102;-82
2023/08/28 04:11:51;;;;;;;12.20;10.30;;;11.50;99.90;;;;;;5076795;28;20052;-82
2023/08/28 04:14:17;;;;;;;11.93;10.52;;;11.50;99.90;;;;;;5067886;28;20410;-82
2023/08/28 04:16:42;;;;;;;11.98;10.18;;;11.40;99.90;;;;;;5068639;28;20045;-82
2023/08/28 04:19:08;;;;;;;11.45;9.75;;;11.40;99.90;;;;;;5066470;28;20056;-82
2023/08/28 04:21:34;;;;;;;11.50;10.30;;;11.40;99.90;;;;;;5067274;28;20044;-82
2023/08/28 04:23:59;;;;;;;12.95;10.80;;;11.40;99.90;;;;;;5084637;28;20044;-82
2023/08/28 04:26:25;;;;;;;14.05;9.82;;;11.30;99.90;;;;;;5078568;28;20048;-81
2023/08/28 04:28:50;;;;;;;13.07;10.02;;;11.30;99.90;;;;;;5072641;28;20068;-82
2023/08/28 04:31:16;;;;;;;10.75;9.38;;;11.40;99.90;;;;;;5071771;28;20052;-81
2023/08/28 04:33:42;;;;;;;11.10;9.82;;;11.30;99.90;;;;;;5082592;28;20040;-82
2023/08/28 04:36:08;;;;;;;10.50;9.40;;;11.20;99.90;;;;;;5078632;28;20444;-81
2023/08/28 04:38:33;;;;;;;12.90;10.40;;;11.20;99.90;;;;;;5077007;28;20052;-81
2023/08/28 04:40:59;;;;;;;12.80;10.07;;;11.20;99.90;;;;;;5067216;28;20040;-81
2023/08/28 04:43:24;;;;;;;12.48;9.65;;;11.20;99.90;;;;;;5066381;28;20049;-81
2023/08/28 04:45:50;;;;;;;10.25;9.25;;;11.10;99.90;;;;;;5084837;28;20082;-81
2023/08/28 04:48:15;;;;;;;9.23;8.40;;;11.10;99.90;;;;;;5066374;28;20094;-82
2023/08/28 04:50:41;;;;;;;10.00;9.10;;;11.00;99.90;;;;;;5073517;28;20051;-81
2023/08/28 04:53:07;;;;;;;13.13;9.65;;;11.00;99.90;;;;;;5067815;28;20032;-82
2023/08/28 04:55:33;;;;;;;10.90;9.15;;;11.00;99.90;;;;;;5069404;28;20039;-82
2023/08/28 04:57:59;;;;;;;9.23;8.32;;;11.00;99.90;;;;;;5068506;28;20063;-82
2023/08/28 05:00:24;;;;;;;11.18;9.00;;;11.00;99.90;;;;;;5062916;28;20040;-83
2023/08/28 05:02:50;;;;;;;9.65;8.63;;;11.00;99.90;;;;;;5050839;28;20044;-83
2023/08/28 05:05:15;;;;;;;10.60;9.55;;;11.00;99.90;;;;;;5079428;28;20055;-81
2023/08/28 05:07:41;;;;;;;12.10;8.90;;;11.00;99.90;;;;;;5081091;28;20047;-81
2023/08/28 05:10:07;;;;;;;10.40;9.27;;;11.00;99.90;;;;;;5075467;28;21315;-81
2023/08/28 05:12:32;;;;;;;10.93;9.82;;;11.00;99.90;;;;;;5073601;28;20037;-82
2023/08/28 05:14:58;;;;;;;10.98;9.70;;;11.00;99.90;;;;;;5082596;28;20044;-81
2023/08/28 05:17:23;;;;;;;10.02;9.02;;;11.00;99.90;;;;;;5075654;28;20048;-81
2023/08/28 05:19:49;;;;;;;9.70;8.50;;;11.00;99.90;;;;;;5069306;28;20168;-82
2023/08/28 05:22:14;;;;;;;11.43;8.82;;;11.00;99.90;;;;;;5072134;28;20072;-82
2023/08/28 05:24:40;;;;;;;12.48;9.52;;;11.00;99.90;;;;;;5091708;28;20040;-82
2023/08/28 05:27:06;;;;;;;10.82;9.60;;;11.10;99.90;;;;;;5079203;28;20048;-79
2023/08/28 05:29:31;;;;;;;14.75;9.95;;;11.20;99.90;;;;;;5076179;28;20128;-82
2023/08/28 05:31:57;;;;;;;13.10;10.18;;;11.30;99.90;;;;;;5069983;28;20080;-81
2023/08/28 05:34:22;;;;;;;10.75;9.63;;;11.30;99.90;;;;;;5070296;28;20044;-82
2023/08/28 05:36:48;;;;;;;13.48;10.68;;;11.40;99.90;;;;;;5070972;28;20040;-82
2023/08/28 05:39:14;;;;;;;11.35;10.13;;;11.50;99.90;;;;;;5077775;28;20044;-82
2023/08/28 05:41:39;;;;;;;18.40;11.40;;;11.50;99.90;;;;;;5081690;28;20070;-83
2023/08/28 05:44:05;;;;;;;14.15;11.30;;;11.60;99.90;;;;;;5061999;28;20052;-82
2023/08/28 05:46:30;;;;;;;12.57;11.10;;;11.60;99.90;;;;;;5076272;28;20064;-83
2023/08/28 05:48:56;;;;;;;11.98;10.73;;;11.70;99.90;;;;;;5082464;28;20048;-83
2023/08/28 05:51:22;;;;;;;13.18;11.77;;;11.70;99.90;;;;;;5074222;28;20051;-82
2023/08/28 05:53:47;;;;;;;12.85;10.23;;;11.80;99.90;;;;;;5071345;28;20051;-83
2023/08/28 05:56:13;;;;;;;12.27;10.98;;;12.20;99.90;;;;;;5069606;28;20079;-83
2023/08/28 05:58:38;;;;;;;12.25;10.95;;;12.80;99.90;;;;;;5070907;28;20081;-83
2023/08/28 06:01:04;;;;;;;12.90;11.20;;;13.10;99.90;;;;;;5085350;28;20090;-83
2023/08/28 06:03:29;;;;;;;13.15;10.43;;;13.00;99.90;;;;;;5090718;28;20044;-82
2023/08/28 06:05:55;;;;;;;11.80;10.52;;;12.90;99.90;;;;;;5091366;28;20464;-82
2023/08/28 06:08:21;;;;;;;12.00;10.13;;;12.90;99.90;;;;;;5090011;28;20390;-83
2023/08/28 06:10:46;;;;;;;14.48;10.70;;;12.90;99.90;;;;;;5090690;28;20040;-83
2023/08/28 06:13:12;;;;;;;13.68;10.57;;;12.90;99.90;;;;;;5089620;28;20100;-83
2023/08/28 06:15:38;;;;;;;12.57;10.73;;;12.90;99.90;;;;;;5078036;28;20044;-83
2023/08/28 06:18:04;;;;;;;11.25;9.77;;;13.00;99.90;;;;;;5082943;28;20055;-83
2023/08/28 06:20:30;;;;;;;12.02;10.25;;;13.00;99.90;;;;;;5086363;28;20501;-83
2023/08/28 06:22:56;;;;;;;12.40;10.30;;;13.20;99.90;;;;;;5090593;28;20542;-83
2023/08/28 06:25:22;;;;;;;12.95;10.07;;;13.20;99.90;;;;;;5090531;28;20036;-83
2023/08/28 06:27:48;;;;;;;10.70;9.63;;;13.30;99.90;;;;;;5089712;28;20164;-83
2023/08/28 06:30:14;;;;;;;11.05;9.95;;;13.40;99.90;;;;;;5074981;28;20123;-82
2023/08/28 06:32:39;;;;;;;11.13;9.13;;;13.50;99.90;;;;;;5068544;28;20480;-82
2023/08/28 06:35:06;;;;;;;10.18;8.70;;;13.60;99.90;;;;;;5069930;28;20040;-82
2023/08/28 06:37:31;;;;;;;10.85;8.57;;;13.70;99.90;;;;;;5070524;28;20399;-83
2023/08/28 06:39:57;;;;;;;9.18;7.82;;;13.80;99.90;;;;;;5069486;28;20059;-83
2023/08/28 06:42:22;;;;;;;11.25;8.27;;;13.90;99.90;;;;;;5069497;28;20094;-82
2023/08/28 06:44:48;;;;;;;10.18;7.85;;;14.00;99.90;;;;;;5069082;28;20056;-83
2023/08/28 06:47:14;;;;;;;9.98;8.00;;;14.10;99.90;;;;;;5052597;28;20072;-83
2023/08/28 06:49:39;;;;;;;9.90;8.60;;;14.20;99.90;;;;;;5082778;28;20123;-83
2023/08/28 06:52:05;;;;;;;8.20;7.40;;;14.30;99.90;;;;;;5068702;28;20044;-82
2023/08/28 06:54:32;;;;;;;8.25;7.03;;;14.40;99.90;;;;;;5070027;28;20052;-83
2023/08/28 06:56:58;;;;;;;10.30;7.45;;;14.50;99.90;;;;;;5052210;28;20048;-80
2023/08/28 06:59:24;;;;;;;8.93;7.32;;;14.70;99.90;;;;;;5083596;28;20059;-82
2023/08/28 07:01:50;;;;;;;8.07;7.03;;;14.80;99.90;;;;;;5089949;28;20124;-83
2023/08/28 07:04:15;;;;;;;7.07;6.28;;;14.90;99.90;;;;;;5083657;28;20518;-83
2023/08/28 07:06:41;;;;;;;6.90;6.22;;;15.00;99.90;;;;;;5070063;28;20037;-82
2023/08/28 07:09:06;;;;;;;7.35;6.43;;;15.20;99.90;;;;;;5071184;28;20048;-82
2023/08/28 07:11:32;;;;;;;6.78;6.03;;;15.30;99.90;;;;;;5067587;28;20069;-82
2023/08/28 07:13:58;;;;;;;7.05;5.82;;;15.40;99.90;;;;;;5067977;28;20036;-82
2023/08/28 07:16:24;;;;;;;6.13;5.53;;;15.50;99.90;;;;;;5066722;28;20048;-81
2023/08/28 07:18:50;;;;;;;6.03;5.43;;;15.60;99.90;;;;;;5078124;28;20043;-82
2023/08/28 07:21:15;;;;;;;6.68;5.13;;;15.70;99.90;;;;;;5087525;28;20044;-82
2023/08/28 07:23:42;;;;;;;5.18;4.65;;;15.90;99.90;;;;;;5089273;28;20510;-81
2023/08/28 07:26:08;;;;;;;5.07;4.00;;;16.00;99.90;;;;;;5089167;28;20160;-82
2023/08/28 07:28:33;;;;;;;5.80;4.50;;;16.10;99.90;;;;;;5071122;28;20062;-83
2023/08/28 07:31:01;;;;;;;6.35;3.90;;;16.30;99.90;;;;;;5089594;28;20055;-82
2023/08/28 07:33:27;;;;;;;4.60;4.03;;;16.40;99.90;;;;;;5088408;28;20071;-82
2023/08/28 07:35:52;;;;;;;5.05;3.55;;;16.60;99.90;;;;;;5074711;28;20091;-82
2023/08/28 07:38:18;;;;;;;4.90;3.38;;;16.70;99.90;;;;;;5068513;28;20087;-82
2023/08/28 07:40:46;;;;;;;3.85;3.38;;;16.80;99.90;;;;;;5068536;28;20384;-82
2023/08/28 07:43:12;;;;;;;5.38;3.00;;;16.90;99.90;;;;;;5070349;28;20485;-81
2023/08/28 07:45:38;;;;;;;5.13;3.42;;;17.00;99.90;;;;;;5076139;28;20040;-81
2023/08/28 07:48:04;;;;;;;6.95;2.85;;;17.10;99.90;;;;;;5075593;28;20080;-79
2023/08/28 07:50:30;;;;;;;3.67;2.65;;;17.20;99.90;;;;;;5071101;28;20079;-80
2023/08/28 07:52:57;;;;;;;4.03;2.47;;;17.30;99.90;;;;;;5080908;28;20052;-80
2023/08/28 07:55:22;;;;;;;3.38;2.30;;;17.30;99.90;;;;;;5068744;28;20037;-81
2023/08/28 07:57:49;;;;;;;4.85;2.75;;;17.40;99.90;;;;;;5067955;28;20102;-80
2023/08/28 08:00:16;;;;;;;2.95;2.10;;;17.80;99.90;;;;;;5068422;28;20040;-81
2023/08/28 08:02:42;;;;;;;3.58;2.50;;;17.60;99.90;;;;;;5068257;28;20510;-80
2023/08/28 08:05:11;;;;;;;3.60;2.03;;;17.80;99.90;;;;;;5075220;28;20094;-81
2023/08/28 08:07:40;;;;;;;2.90;2.10;;;17.90;99.90;;;;;;5067923;28;20049;-80
2023/08/28 08:10:10;;;;;;;2.80;1.60;;;18.00;99.90;;;;;;5075288;28;20047;-80
2023/08/28 08:12:38;;;;;;;5.68;1.58;;;18.10;99.90;;;;;;5078417;28;20048;-80
2023/08/28 08:15:04;;;;;;;3.13;1.60;;;18.30;99.90;;;;;;5067928;28;20059;-81
2023/08/28 08:17:30;;;;;;;2.85;1.40;;;18.30;99.90;;;;;;5079191;28;20036;-81
2023/08/28 08:19:56;;;;;;;2.35;1.27;;;18.40;99.90;;;;;;5071156;28;20054;-81
2023/08/28 08:22:21;;;;;;;1.95;1.17;;;18.40;99.90;;;;;;5081966;28;20035;-81
2023/08/28 08:24:47;;;;;;;2.30;1.17;;;18.40;99.90;;;;;;5085455;28;20122;-81
2023/08/28 08:27:13;;;;;;;2.13;1.00;;;18.40;99.90;;;;;;5083984;28;20044;-80
2023/08/28 08:29:38;;;;;;;2.88;1.13;;;18.40;99.90;;;;;;5083482;28;20052;-80
2023/08/28 08:32:04;;;;;;;2.50;1.13;;;18.60;99.90;;;;;;5066474;28;20094;-80
2023/08/28 08:34:32;;;;;;;1.33;0.90;;;18.70;99.90;;;;;;5065041;28;20052;-80
2023/08/28 08:36:58;;;;;;;2.72;1.10;;;18.80;99.90;;;;;;5063748;28;20109;-81
2023/08/28 08:39:25;;;;;;;2.88;1.63;;;19.00;99.90;;;;;;5065576;28;20151;-80
2023/08/28 08:41:51;;;;;;;4.78;0.95;;;19.10;99.90;;;;;;5063658;28;20048;-82
2023/08/28 08:44:16;;;;;;;2.47;1.00;;;19.30;99.90;;;;;;5063916;28;20059;-81
2023/08/28 08:46:45;;;;;;;2.05;0.90;;;19.40;99.90;;;;;;5065525;28;20052;-81
2023/08/28 08:49:15;;;;;;;3.63;0.88;;;19.50;99.90;;;;;;5064726;28;20048;-81
2023/08/28 08:51:45;;;;;;;2.10;1.10;;;19.60;99.90;;;;;;5072287;28;20052;-82
2023/08/28 08:54:24;;;;;;;4.35;1.00;;;19.60;99.90;;;;;;5085264;28;20081;-82
2023/08/28 08:56:54;;;;;;;2.97;1.10;;;19.50;99.90;;;;;;5083882;28;20051;-84
2023/08/28 08:59:21;;;;;;;3.00;1.10;;;19.50;99.90;;;;;;5081158;28;20127;-84
2023/08/28 09:01:47;;;;;;;1.33;0.80;;;19.50;99.90;;;;;;5064831;28;20045;-83
2023/08/28 09:04:14;;;;;;;3.75;1.00;;;19.80;99.90;;;;;;5074009;28;20115;-83
2023/08/28 09:06:41;;;;;;;4.20;0.80;;;19.80;99.90;;;;;;5074916;28;20040;-80
2023/08/28 09:09:11;;;;;;;3.40;0.90;;;19.70;99.90;;;;;;5064868;28;20557;-82
2023/08/28 09:11:39;;;;;;;2.10;0.75;;;19.50;99.90;;;;;;5074855;28;20519;-82
2023/08/28 09:14:05;;;;;;;2.83;1.15;;;19.30;99.90;;;;;;5074693;28;20524;-83
2023/08/28 09:16:33;;;;;;;2.10;1.50;;;19.30;99.90;;;;;;5071761;28;20036;-83
2023/08/28 09:19:00;;;;;;;1.83;0.73;;;19.20;99.90;;;;;;5085033;28;20044;-83
2023/08/28 09:21:27;;;;;;;0.75;0.60;;;19.20;99.90;;;;;;5084499;28;20055;-83
2023/08/28 09:23:53;;;;;;;2.22;0.80;;;19.00;99.90;;;;;;5098621;28;20126;-83
2023/08/28 09:26:22;;;;;;;3.35;1.00;;;19.00;99.90;;;;;;5070632;28;20970;-83
2023/08/28 09:29:08;;;;;;;4.80;1.05;;;19.00;99.90;;;;;;5069871;28;20506;-82
2023/08/28 09:31:39;;;;;;;3.25;0.90;;;18.90;99.90;;;;;;5063448;28;20567;-82
2023/08/28 09:34:05;;;;;;;2.97;0.80;;;19.00;99.90;;;;;;5064722;28;20044;-81
2023/08/28 09:36:35;;;;;;;3.15;0.95;;;19.20;99.90;;;;;;5070351;28;20051;-83
2023/08/28 09:39:04;;;;;;;2.20;0.80;;;19.30;99.90;;;;;;5084242;28;21113;-83
2023/08/28 09:41:49;;;;;;;2.40;0.90;;;19.30;99.90;;;;;;5083390;28;20052;-82
2023/08/28 09:44:16;;;;;;;2.67;0.95;;;19.30;99.90;;;;;;5079844;28;20135;-82
2023/08/28 09:46:47;;;;;;;1.52;0.60;;;19.50;99.90;;;;;;5064663;28;20055;-83
2023/08/28 09:49:13;;;;;;;0.90;0.50;;;19.50;99.90;;;;;;5062876;28;20052;-83
2023/08/28 09:51:44;;;;;;;0.90;0.70;;;19.50;99.90;;;;;;5065216;28;20131;-84
2023/08/28 09:54:11;;;;;;;2.42;0.60;;;19.60;99.90;;;;;;5068516;28;20083;-83
2023/08/28 09:56:38;;;;;;;1.33;0.65;;;19.70;99.90;;;;;;5068934;28;20769;-82
2023/08/28 09:59:06;;;;;;;1.77;0.82;;;19.90;99.90;;;;;;5076806;28;20043;-82
2023/08/28 10:01:34;;;;;;;1.42;0.80;;;20.00;99.90;;;;;;5081512;28;20112;-83
2023/08/28 10:04:04;;;;;;;2.65;1.10;;;20.20;99.90;;;;;;5051048;28;20052;-82
2023/08/28 10:06:33;;;;;;;1.95;0.85;;;20.40;99.90;;;;;;5068081;28;20072;-83
2023/08/28 10:09:00;;;;;;;2.28;0.68;;;20.40;99.90;;;;;;5075750;28;20051;-83
2023/08/28 10:11:33;;;;;;;2.60;1.00;;;20.60;99.90;;;;;;5089695;28;20465;-80
2023/08/28 10:14:01;;;;;;;1.15;0.60;;;20.70;99.90;;;;;;5088306;28;20060;-82
2023/08/28 10:16:29;;;;;;;1.95;0.70;;;20.70;99.90;;;;;;5082242;28;20086;-83
2023/08/28 10:19:10;;;;;;;1.90;0.60;;;20.80;99.90;;;;;;5080189;28;20489;-83
2023/08/28 10:21:36;;;;;;;2.10;0.70;;;21.00;99.90;;;;;;5079492;28;20168;-83
2023/08/28 10:24:04;;;;;;;1.23;0.80;;;21.00;99.90;;;;;;5079449;28;20044;-84
2023/08/28 10:26:30;;;;;;;1.17;0.70;;;21.20;99.90;;;;;;5069037;28;20044;-82
2023/08/28 10:28:57;;;;;;;1.20;0.70;;;21.40;99.90;;;;;;5068127;28;20048;-82
2023/08/28 10:31:23;;;;;;;1.85;0.63;;;21.60;99.90;;;;;;5068718;28;20075;-83
2023/08/28 10:33:50;;;;;;;0.70;0.50;;;21.60;99.90;;;;;;5075061;28;20048;-82
2023/08/28 10:36:17;;;;;;;0.63;0.43;;;21.70;99.90;;;;;;5068632;28;20063;-83
2023/08/28 10:38:44;;;;;;;1.35;0.60;;;21.80;99.90;;;;;;5073200;28;20081;-81
2023/08/28 10:41:11;;;;;;;0.88;0.47;;;21.90;99.90;;;;;;5087477;28;20059;-82
2023/08/28 10:43:37;;;;;;;1.98;0.60;;;22.10;99.90;;;;;;5087931;28;20044;-80
2023/08/28 10:46:04;;;;;;;1.55;0.60;;;22.10;99.90;;;;;;5087604;28;20061;-82
2023/08/28 10:48:30;;;;;;;1.30;0.50;;;22.00;99.90;;;;;;5086799;28;20249;-81
2023/08/28 10:50:59;;;;;;;0.73;0.50;;;21.70;99.90;;;;;;5079438;28;20450;-82
2023/08/28 10:53:26;;;;;;;1.85;0.60;;;21.50;99.90;;;;;;5069516;28;20135;-82
2023/08/28 10:55:57;;;;;;;1.52;0.60;;;21.20;99.90;;;;;;5069964;28;20528;-81
2023/08/28 10:58:23;;;;;;;2.88;0.75;;;20.90;99.90;;;;;;5073301;28;20028;-83
2023/08/28 11:01:09;;;;;;;3.10;1.10;;;20.70;99.90;;;;;;5070047;28;20049;-83
2023/08/28 11:03:56;;;;;;;1.77;0.70;;;20.40;99.90;;;;;;5069653;28;20068;-83
2023/08/28 11:06:40;;;;;;;3.17;0.60;;;20.20;99.90;;;;;;5077228;28;20079;-82
2023/08/28 11:09:28;;;;;;;1.85;0.70;;;20.00;99.90;;;;;;5085505;28;20059;-82
2023/08/28 11:12:02;;;;;;;1.25;0.80;;;19.90;99.90;;;;;;5079433;28;20036;-83
2023/08/28 11:14:38;;;;;;;2.05;0.90;;;19.90;99.90;;;;;;5075764;28;20083;-83
2023/08/28 11:17:11;;;;;;;3.47;1.10;;;19.90;99.90;;;;;;5069062;28;20059;-82
2023/08/28 11:19:55;;;;;;;3.95;1.25;;;19.90;99.90;;;;;;5079735;28;20049;-82
2023/08/28 11:22:47;;;;;;;3.40;0.90;;;20.00;99.90;;;;;;5073948;28;20505;-82
2023/08/28 11:25:34;;;;;;;2.60;0.90;;;20.00;99.90;;;;;;5071319;28;20052;-82
2023/08/28 11:28:00;;;;;;;0.57;0.50;;;20.20;99.90;;;;;;5087424;28;20056;-82
2023/08/28 11:30:26;;;;;;;0.85;0.60;;;20.70;99.90;;;;;;5071613;28;20051;-82
2023/08/28 11:32:54;;;;;;;1.58;0.60;;;20.70;99.90;;;;;;5088976;28;20046;-82
2023/08/28 11:35:22;;;;;;;1.70;0.70;;;20.80;99.90;;;;;;5083369;28;20041;-83
2023/08/28 11:37:50;;;;;;;1.25;0.75;;;20.80;99.90;;;;;;5088487;28;20052;-83
2023/08/28 11:40:24;;;;;;;1.67;0.60;;;20.80;99.90;;;;;;5075791;28;20078;-82
2023/08/28 11:43:03;;;;;;;1.23;0.85;;;20.80;99.90;;;;;;5071615;28;20417;-82
2023/08/28 11:45:28;;;;;;;2.97;0.80;;;20.80;99.90;;;;;;5070342;28;20045;-82
2023/08/28 11:47:58;;;;;;;1.42;0.65;;;21.00;99.90;;;;;;5067011;28;20071;-82
2023/08/28 11:50:23;;;;;;;238.30;18.73;;;21.30;99.90;;;;;;5069242;28;20048;-85
2023/08/28 11:52:49;;;;;;;1.35;0.50;;;21.40;99.90;;;;;;5050706;28;20056;-81
2023/08/28 11:55:15;;;;;;;0.52;0.40;;;21.50;99.90;;;;;;5068279;28;20111;-82
2023/08/28 11:57:43;;;;;;;1.58;0.60;;;21.40;99.90;;;;;;5051772;28;20040;-81
2023/08/28 12:00:14;;;;;;;1.48;0.70;;;21.30;99.90;;;;;;5084085;28;20044;-81
2023/08/28 12:02:43;;;;;;;1.85;0.52;;;21.20;99.90;;;;;;5066832;28;20155;-81
2023/08/28 12:05:10;;;;;;;2.80;0.95;;;21.10;99.90;;;;;;5067078;28;20131;-81
2023/08/28 12:07:35;;;;;;;0.75;0.52;;;21.10;99.90;;;;;;5065918;28;20414;-81
2023/08/28 12:10:03;;;;;;;1.77;0.70;;;21.20;99.90;;;;;;5069646;28;20054;-81
2023/08/28 12:12:31;;;;;;;2.15;0.65;;;21.10;99.90;;;;;;5067841;28;20048;-80
2023/08/28 12:14:57;;;;;;;2.60;0.70;;;21.20;99.90;;;;;;5067442;28;20056;-81
2023/08/28 12:17:24;;;;;;;2.38;0.77;;;21.20;99.90;;;;;;5083932;28;20062;-81
2023/08/28 12:19:52;;;;;;;0.68;0.60;;;21.20;99.90;;;;;;5098685;28;20579;-81
2023/08/28 12:22:21;;;;;;;2.35;0.75;;;21.20;99.90;;;;;;5088737;28;20454;-82
2023/08/28 12:24:48;;;;;;;0.77;0.63;;;21.00;99.90;;;;;;5079964;28;20074;-82
2023/08/28 12:27:16;;;;;;;1.02;0.68;;;21.00;99.90;;;;;;5067746;28;20093;-82
2023/08/28 12:29:42;;;;;;;2.72;0.65;;;21.10;99.90;;;;;;5068342;28;20052;-82
2023/08/28 12:32:14;;;;;;;2.47;0.55;;;21.10;99.90;;;;;;5072929;28;20051;-80
2023/08/28 12:34:40;;;;;;;2.30;0.80;;;20.80;99.90;;;;;;5071746;28;20491;-81
2023/08/28 12:37:08;;;;;;;0.77;0.60;;;20.70;99.90;;;;;;5067483;28;20051;-81
2023/08/28 12:39:34;;;;;;;0.73;0.60;;;20.50;99.90;;;;;;5079756;28;20395;-82
2023/08/28 12:42:01;;;;;;;0.98;0.75;;;20.60;99.90;;;;;;5088880;28;20044;-81